createdAt,value
2022-11-01T00:00:31.611Z,59.08
2022-11-01T00:03:01.088Z,64.65
2022-11-01T00:05:30.595Z,62.25
2022-11-01T00:08:05.779Z,65.78
2022-11-01T00:10:35.683Z,70.53
2022-11-01T00:13:05.351Z,75.63
2022-11-01T00:15:35.115Z,66.70
2022-11-01T00:18:04.725Z,67.03
2022-11-01T00:20:34.243Z,69.40
2022-11-01T00:23:06.940Z,63.65
2022-11-01T00:25:36.552Z,74.88
2022-11-01T00:28:06.282Z,63.42
2022-11-01T00:30:39.263Z,67.72
2022-11-01T00:33:09.989Z,66.38
2022-11-01T00:35:39.761Z,67.68
2022-11-01T00:38:12.021Z,62.65
2022-11-01T00:40:41.500Z,60.53
2022-11-01T00:43:10.968Z,68.55
2022-11-01T00:45:41.019Z,65.70
2022-11-01T00:48:10.700Z,69.45
2022-11-01T00:50:40.278Z,65.85
2022-11-01T00:53:19.392Z,72.85
2022-11-01T00:55:49.150Z,66.63
2022-11-01T00:58:18.802Z,66.35
2022-11-01T01:00:49.963Z,64.30
2022-11-01T01:03:19.498Z,66.35
2022-11-01T01:05:51.618Z,63.75
2022-11-01T01:08:24.650Z,72.93
2022-11-01T01:10:54.672Z,65.05
2022-11-01T01:13:25.354Z,75.40
2022-11-01T01:15:54.894Z,66.22
2022-11-01T01:18:24.571Z,65.85
2022-11-01T01:20:54.153Z,64.82
2022-11-01T01:23:26.435Z,66.38
2022-11-01T01:25:56.144Z,66.80
2022-11-01T01:28:26.176Z,64.80
2022-11-01T01:30:55.688Z,66.65
2022-11-01T01:33:25.187Z,61.75
2022-11-01T01:35:54.638Z,62.97
2022-11-01T01:38:26.747Z,63.42
2022-11-01T01:41:16.347Z,61.10
2022-11-01T01:43:46.824Z,61.60
2022-11-01T01:46:16.375Z,70.03
2022-11-01T01:48:49.412Z,66.38
2022-11-01T01:51:22.080Z,62.30
2022-11-01T01:53:58.319Z,65.28
2022-11-01T01:56:34.744Z,65.85
2022-11-01T01:59:07.904Z,64.82
2022-11-01T02:01:41.521Z,63.67
2022-11-01T02:04:21.048Z,62.97
2022-11-01T02:06:51.205Z,61.10
2022-11-01T02:09:26.904Z,63.50
2022-11-01T02:12:00.159Z,63.95
2022-11-01T02:14:29.899Z,65.30
2022-11-01T02:17:07.170Z,59.35
2022-11-01T02:20:07.475Z,67.80
2022-11-01T02:22:56.580Z,67.60
2022-11-01T02:25:43.998Z,65.65
2022-11-01T02:28:34.215Z,61.75
2022-11-01T02:31:20.357Z,61.70
2022-11-01T02:33:58.643Z,64.55
2022-11-01T02:36:36.975Z,64.95
2022-11-01T02:41:51.035Z,59.22
2022-11-01T02:44:26.281Z,59.05
2022-11-01T02:47:03.944Z,63.75
2022-11-01T02:49:39.719Z,66.28
2022-11-01T02:52:12.460Z,57.05
2022-11-01T02:54:45.551Z,57.28
2022-11-01T02:57:31.114Z,64.20
2022-11-01T03:00:05.185Z,62.45
2022-11-01T03:02:42.565Z,64.78
2022-11-01T03:05:24.273Z,67.80
2022-11-01T03:07:59.938Z,59.35
2022-11-01T03:10:39.136Z,59.05
2022-11-01T03:13:16.575Z,61.58
2022-11-01T03:15:55.470Z,63.45
2022-11-01T03:18:33.953Z,61.15
2022-11-01T03:21:15.844Z,59.28
2022-11-01T03:23:52.073Z,62.75
2022-11-01T03:26:28.574Z,56.67
2022-11-01T03:29:03.023Z,60.88
2022-11-01T03:31:36.270Z,62.17
2022-11-01T03:34:08.556Z,56.03
2022-11-01T03:36:45.587Z,57.95
2022-11-01T03:39:21.832Z,59.42
2022-11-01T03:41:57.037Z,59.05
2022-11-01T03:44:27.807Z,55.25
2022-11-01T03:46:57.355Z,62.38
2022-11-01T03:49:29.768Z,54.03
2022-11-01T03:52:02.235Z,57.13
2022-11-01T03:54:31.828Z,54.50
2022-11-01T03:57:01.457Z,51.47
2022-11-01T03:59:31.420Z,53.08
2022-11-01T04:02:01.288Z,51.75
2022-11-01T04:04:31.116Z,53.67
2022-11-01T04:07:03.576Z,49.78
2022-11-01T04:09:33.156Z,55.42
2022-11-01T04:12:02.689Z,54.85
2022-11-01T04:14:44.878Z,53.90
2022-11-01T04:17:26.882Z,58.85
2022-11-01T04:20:11.567Z,52.92
2022-11-01T04:22:43.796Z,53.70
2022-11-01T04:25:13.759Z,52.63
2022-11-01T04:27:43.468Z,53.65
2022-11-01T04:30:14.780Z,50.60
2022-11-01T04:32:45.869Z,54.15
2022-11-01T04:35:15.503Z,51.47
2022-11-01T04:37:47.649Z,56.75
2022-11-01T04:40:19.363Z,55.38
2022-11-01T04:42:49.242Z,57.28
2022-11-01T04:45:19.082Z,53.42
2022-11-01T04:47:53.837Z,51.60
2022-11-01T04:50:24.603Z,55.83
2022-11-01T04:52:56.815Z,53.42
2022-11-01T04:55:26.398Z,54.92
2022-11-01T04:57:55.943Z,54.88
2022-11-01T05:00:25.969Z,52.15
2022-11-01T05:02:55.829Z,50.47
2022-11-01T05:05:28.099Z,49.80
2022-11-01T05:08:05.509Z,52.00
2022-11-01T05:10:36.137Z,50.10
2022-11-01T05:13:06.931Z,52.40
2022-11-01T05:15:39.911Z,48.83
2022-11-01T05:18:18.024Z,51.17
2022-11-01T05:20:47.668Z,47.92
2022-11-01T05:23:20.007Z,43.50
2022-11-01T05:25:50.122Z,47.25
2022-11-01T05:28:19.770Z,45.47
2022-11-01T05:30:49.381Z,47.03
2022-11-01T05:33:18.908Z,42.55
2022-11-01T05:35:48.818Z,49.33
2022-11-01T05:38:20.916Z,46.38
2022-11-01T05:40:50.701Z,44.53
2022-11-01T05:43:20.330Z,43.70
2022-11-01T05:45:49.976Z,39.50
2022-11-01T05:48:19.519Z,41.25
2022-11-01T05:50:49.504Z,44.40
2022-11-01T05:53:24.516Z,40.35
2022-11-01T05:55:55.320Z,43.45
2022-11-01T05:58:28.031Z,41.58
2022-11-01T06:01:00.503Z,41.30
2022-11-01T06:03:30.130Z,43.55
2022-11-01T06:06:00.091Z,40.85
2022-11-01T06:08:33.455Z,38.03
2022-11-01T06:11:07.274Z,40.10
2022-11-01T06:13:37.264Z,39.00
2022-11-01T06:16:08.861Z,39.92
2022-11-01T06:18:38.517Z,40.20
2022-11-01T06:21:08.325Z,38.75
2022-11-01T06:23:40.530Z,37.67
2022-11-01T06:26:10.343Z,35.05
2022-11-01T06:28:39.969Z,38.15
2022-11-01T06:31:09.750Z,36.25
2022-11-01T06:33:39.452Z,33.47
2022-11-01T06:36:09.959Z,35.67
2022-11-01T06:38:42.106Z,36.10
2022-11-01T06:41:11.794Z,31.00
2022-11-01T06:43:41.591Z,35.90
2022-11-01T06:46:12.963Z,28.67
2022-11-01T06:48:45.633Z,26.17
2022-11-01T06:51:15.179Z,23.02
2022-11-01T06:53:47.404Z,24.33
2022-11-01T06:56:17.310Z,22.17
2022-11-01T06:58:46.764Z,25.13
2022-11-01T07:01:19.072Z,21.52
2022-11-01T07:03:49.187Z,18.67
2022-11-01T07:06:18.865Z,18.83
2022-11-01T07:08:51.541Z,22.20
2022-11-01T07:11:21.296Z,17.70
2022-11-01T07:13:50.773Z,16.70
2022-11-01T07:16:20.539Z,14.95
2022-11-01T07:18:50.111Z,15.90
2022-11-01T07:21:19.634Z,16.33
2022-11-01T07:23:52.898Z,13.85
2022-11-01T07:26:22.601Z,13.25
2022-11-01T07:28:52.090Z,13.20
2022-11-01T07:31:21.619Z,12.02
2022-11-01T07:33:51.100Z,13.85
2022-11-01T07:36:20.956Z,10.48
2022-11-01T07:38:53.135Z,12.65
2022-11-01T07:41:22.604Z,11.05
2022-11-01T07:43:52.074Z,13.13
2022-11-01T07:46:21.670Z,12.95
2022-11-01T07:48:51.396Z,11.18
2022-11-01T07:51:20.868Z,10.93
2022-11-01T07:53:53.103Z,16.67
2022-11-01T07:56:23.232Z,11.55
2022-11-01T07:58:52.717Z,11.07
2022-11-01T08:01:22.419Z,10.50
2022-11-01T08:03:52.112Z,11.57
2022-11-01T08:08:54.608Z,12.50
2022-11-01T08:11:24.084Z,12.50
2022-11-01T08:13:53.551Z,11.65
2022-11-01T08:16:23.171Z,13.70
2022-11-01T08:18:53.773Z,10.77
2022-11-01T08:21:23.466Z,11.95
2022-11-01T08:23:55.521Z,11.35
2022-11-01T08:26:25.077Z,14.38
2022-11-01T08:28:54.616Z,12.27
2022-11-01T08:31:24.163Z,10.02
2022-11-01T08:33:53.930Z,10.10
2022-11-01T08:36:23.504Z,16.10
2022-11-01T08:38:55.610Z,12.13
2022-11-01T08:41:25.108Z,11.35
2022-11-01T08:43:54.566Z,10.57
2022-11-01T08:46:24.127Z,12.48
2022-11-01T08:48:56.297Z,11.00
2022-11-01T08:51:26.734Z,13.32
2022-11-01T08:54:00.833Z,13.25
2022-11-01T08:56:30.893Z,10.75
2022-11-01T08:59:00.583Z,14.40
2022-11-01T09:01:30.352Z,8.15
2022-11-01T09:04:01.382Z,9.60
2022-11-01T09:06:35.332Z,9.32
2022-11-01T09:09:10.245Z,14.60
2022-11-01T09:11:39.840Z,10.35
2022-11-01T09:14:09.304Z,11.90
2022-11-01T09:16:38.850Z,13.70
2022-11-01T09:19:08.335Z,14.20
2022-11-01T09:21:37.782Z,9.23
2022-11-01T09:24:10.101Z,11.95
2022-11-01T09:26:39.573Z,13.77
2022-11-01T09:29:09.188Z,14.15
2022-11-01T09:31:38.921Z,11.63
2022-11-01T09:34:08.398Z,12.38
2022-11-01T09:36:38.005Z,10.15
2022-11-01T09:39:10.304Z,9.15
2022-11-01T09:41:43.232Z,12.45
2022-11-01T09:44:18.999Z,12.38
2022-11-01T09:46:55.402Z,11.27
2022-11-01T09:49:31.528Z,12.10
2022-11-01T09:52:01.630Z,9.30
2022-11-01T09:54:34.755Z,8.30
2022-11-01T09:57:22.286Z,11.60
2022-11-01T10:00:06.658Z,11.98
2022-11-01T10:03:05.265Z,8.65
2022-11-01T10:05:49.137Z,8.88
2022-11-01T10:08:28.669Z,10.50
2022-11-01T10:11:11.070Z,10.60
2022-11-01T10:13:48.094Z,9.73
2022-11-01T10:16:24.799Z,13.85
2022-11-01T10:19:03.221Z,8.30
2022-11-01T10:21:42.621Z,8.52
2022-11-01T10:24:23.176Z,6.47
2022-11-01T10:27:01.008Z,7.68
2022-11-01T10:29:39.387Z,8.35
2022-11-01T10:32:25.726Z,5.43
2022-11-01T10:34:57.663Z,8.32
2022-11-01T10:37:32.460Z,9.63
2022-11-01T10:40:09.515Z,7.90
2022-11-01T10:42:42.212Z,8.15
2022-11-01T10:45:17.819Z,9.45
2022-11-01T10:47:48.536Z,7.53
2022-11-01T10:50:21.178Z,10.30
2022-11-01T10:52:59.788Z,9.65
2022-11-01T10:55:33.247Z,10.23
2022-11-01T10:58:09.103Z,10.27
2022-11-01T11:00:43.339Z,27.48
2022-11-01T11:03:21.224Z,7.70
2022-11-01T11:05:52.219Z,9.00
2022-11-01T11:08:26.760Z,9.60
2022-11-01T11:11:00.607Z,10.35
2022-11-01T11:13:34.233Z,8.50
2022-11-01T11:16:06.979Z,8.52
2022-11-01T11:18:38.887Z,8.13
2022-11-01T11:21:10.256Z,7.30
2022-11-01T11:23:44.330Z,7.10
2022-11-01T11:26:17.182Z,5.53
2022-11-01T11:28:53.608Z,5.72
2022-11-01T11:31:27.199Z,5.18
2022-11-01T11:34:02.042Z,7.72
2022-11-01T11:36:34.960Z,8.32
2022-11-01T11:39:05.818Z,6.50
2022-11-01T11:41:37.000Z,7.72
2022-11-01T11:44:42.530Z,9.00
2022-11-01T11:47:24.495Z,7.65
2022-11-01T11:49:54.650Z,4.93
2022-11-01T11:52:30.392Z,7.32
2022-11-01T11:55:02.047Z,5.75
2022-11-01T11:57:31.792Z,14.00
2022-11-01T12:00:10.469Z,6.18
2022-11-01T12:02:43.009Z,5.45
2022-11-01T12:05:20.179Z,6.18
2022-11-01T12:07:51.600Z,7.13
2022-11-01T12:10:34.261Z,6.45
2022-11-01T12:13:04.963Z,4.93
2022-11-01T12:15:41.377Z,5.10
2022-11-01T12:18:16.310Z,4.00
2022-11-01T12:20:52.264Z,4.90
2022-11-01T12:23:29.823Z,5.75
2022-11-01T12:26:01.761Z,4.78
2022-11-01T12:28:36.907Z,3.08
2022-11-01T12:31:15.081Z,4.95
2022-11-01T12:33:51.367Z,4.78
2022-11-01T12:36:27.778Z,4.95
2022-11-01T12:39:02.633Z,9.00
2022-11-01T12:41:38.111Z,15.63
2022-11-01T12:44:21.281Z,4.72
2022-11-01T12:46:58.769Z,4.45
2022-11-01T12:49:35.330Z,5.60
2022-11-01T12:52:12.728Z,6.53
2022-11-01T12:54:47.421Z,5.65
2022-11-01T12:57:19.680Z,3.80
2022-11-01T12:59:50.086Z,4.43
2022-11-01T13:02:37.164Z,4.65
2022-11-01T13:05:11.886Z,3.03
2022-11-01T13:07:55.977Z,6.43
2022-11-01T13:10:33.981Z,5.25
2022-11-01T13:13:17.676Z,5.00
2022-11-01T13:15:57.763Z,2.13
2022-11-01T13:18:41.679Z,5.93
2022-11-01T13:21:16.495Z,4.15
2022-11-01T13:23:53.326Z,5.72
2022-11-01T13:26:27.598Z,5.15
2022-11-01T13:29:09.426Z,2.67
2022-11-01T13:32:00.971Z,3.67
2022-11-01T13:34:54.027Z,5.93
2022-11-01T13:37:33.753Z,5.25
2022-11-01T13:40:18.245Z,4.28
2022-11-01T13:42:53.366Z,2.80
2022-11-01T13:45:59.853Z,4.72
2022-11-01T13:48:38.256Z,2.72
2022-11-01T13:51:23.654Z,2.55
2022-11-01T13:54:01.883Z,6.20
2022-11-01T13:56:35.694Z,3.15
2022-11-01T13:59:15.007Z,5.93
2022-11-01T14:01:44.922Z,6.90
2022-11-01T14:04:41.007Z,7.60
2022-11-01T14:07:19.184Z,4.95
2022-11-01T14:09:50.423Z,3.75
2022-11-01T14:12:35.103Z,5.20
2022-11-01T14:15:23.281Z,4.88
2022-11-01T14:18:11.487Z,5.25
2022-11-01T14:20:50.015Z,5.55
2022-11-01T14:23:55.265Z,2.97
2022-11-01T14:27:04.497Z,5.72
2022-11-01T14:29:36.647Z,3.83
2022-11-01T14:32:07.032Z,4.15
2022-11-01T14:34:39.632Z,2.83
2022-11-01T14:37:18.904Z,3.90
2022-11-01T14:39:58.143Z,6.82
2022-11-01T14:42:40.251Z,4.15
2022-11-01T14:45:27.890Z,7.75
2022-11-01T14:48:01.509Z,4.50
2022-11-01T14:50:38.169Z,7.65
2022-11-01T14:53:12.925Z,4.70
2022-11-01T14:55:42.515Z,7.90
2022-11-01T14:58:20.715Z,7.22
2022-11-01T15:00:51.765Z,4.35
2022-11-01T15:03:22.534Z,5.97
2022-11-01T15:05:53.721Z,4.53
2022-11-01T15:08:35.092Z,5.18
2022-11-01T15:11:06.942Z,6.20
2022-11-01T15:13:43.665Z,4.55
2022-11-01T15:16:21.584Z,5.55
2022-11-01T15:18:54.884Z,5.20
2022-11-01T15:21:30.837Z,3.97
2022-11-01T15:24:03.209Z,3.47
2022-11-01T15:26:36.318Z,5.80
2022-11-01T15:29:09.287Z,4.57
2022-11-01T15:31:50.632Z,5.50
2022-11-01T15:34:25.374Z,3.13
2022-11-01T15:36:55.557Z,7.05
2022-11-01T15:39:29.100Z,5.22
2022-11-01T15:41:59.295Z,5.85
2022-11-01T15:44:33.090Z,4.03
2022-11-01T15:47:06.700Z,7.85
2022-11-01T15:49:40.335Z,9.02
2022-11-01T15:52:19.315Z,4.90
2022-11-01T15:54:54.842Z,5.43
2022-11-01T15:57:28.651Z,6.25
2022-11-01T16:00:07.988Z,5.13
2022-11-01T16:02:44.675Z,5.20
2022-11-01T16:05:19.210Z,5.18
2022-11-01T16:07:49.870Z,7.25
2022-11-01T16:10:23.709Z,7.13
2022-11-01T16:12:55.189Z,7.15
2022-11-01T16:15:31.282Z,5.00
2022-11-01T16:18:02.377Z,4.90
2022-11-01T16:20:40.921Z,5.78
2022-11-01T16:23:12.456Z,5.55
2022-11-01T16:25:42.408Z,6.38
2022-11-01T16:28:40.725Z,5.78
2022-11-01T16:31:25.962Z,7.82
2022-11-01T16:33:56.505Z,10.38
2022-11-01T16:36:41.773Z,11.85
2022-11-01T16:39:31.091Z,11.57
2022-11-01T16:42:01.218Z,7.35
2022-11-01T16:44:30.759Z,7.85
2022-11-01T16:47:03.123Z,6.32
2022-11-01T16:49:32.636Z,9.65
2022-11-01T16:52:02.184Z,7.28
2022-11-01T16:54:31.961Z,5.50
2022-11-01T16:57:01.549Z,10.75
2022-11-01T16:59:38.365Z,476.33
2022-11-01T17:02:19.328Z,72.60
2022-11-01T17:04:52.396Z,8.57
2022-11-01T17:07:22.279Z,9.95
2022-11-01T17:09:51.813Z,5.95
2022-11-01T17:12:21.439Z,7.20
2022-11-01T17:14:52.476Z,11.27
2022-11-01T17:17:27.479Z,7.60
2022-11-01T17:20:02.058Z,9.25
2022-11-01T17:22:36.368Z,10.95
2022-11-01T17:25:08.427Z,7.05
2022-11-01T17:27:37.921Z,8.48
2022-11-01T17:30:08.647Z,6.78
2022-11-01T17:32:40.808Z,6.35
2022-11-01T17:35:11.797Z,7.20
2022-11-01T17:37:42.548Z,9.65
2022-11-01T17:40:21.293Z,10.45
2022-11-01T17:42:50.945Z,6.90
2022-11-01T17:45:22.066Z,7.65
2022-11-01T17:47:54.954Z,10.57
2022-11-01T17:50:25.097Z,6.90
2022-11-01T17:52:54.622Z,7.07
2022-11-01T17:55:24.125Z,7.20
2022-11-01T17:57:54.338Z,7.10
2022-11-01T18:00:24.009Z,7.68
2022-11-01T18:02:56.329Z,8.70
2022-11-01T18:05:25.995Z,7.72
2022-11-01T18:07:56.161Z,8.73
2022-11-01T18:10:33.706Z,5.25
2022-11-01T18:13:30.754Z,9.63
2022-11-01T18:16:06.971Z,7.15
2022-11-01T18:18:54.992Z,8.48
2022-11-01T18:21:33.442Z,7.28
2022-11-01T18:24:17.131Z,8.55
2022-11-01T18:26:49.703Z,6.22
2022-11-01T18:29:23.733Z,8.48
2022-11-01T18:32:07.451Z,10.57
2022-11-01T18:34:48.672Z,8.27
2022-11-01T18:37:28.007Z,7.28
2022-11-01T18:40:05.465Z,5.03
2022-11-01T18:42:37.937Z,5.80
2022-11-01T18:45:26.831Z,7.32
2022-11-01T18:48:05.205Z,7.07
2022-11-01T18:50:41.336Z,6.53
2022-11-01T18:53:16.156Z,6.38
2022-11-01T18:55:47.792Z,5.45
2022-11-01T18:58:22.279Z,7.43
2022-11-01T19:01:02.378Z,6.60
2022-11-01T19:03:32.418Z,7.50
2022-11-01T19:06:14.287Z,4.50
2022-11-01T19:08:43.870Z,3.30
2022-11-01T19:11:14.524Z,10.35
2022-11-01T19:13:44.222Z,5.65
2022-11-01T19:16:14.925Z,6.25
2022-11-01T19:18:44.679Z,4.35
2022-11-01T19:21:20.121Z,6.15
2022-11-01T19:23:52.075Z,7.72
2022-11-01T19:26:26.062Z,6.90
2022-11-01T19:28:55.699Z,3.65
2022-11-01T19:31:32.517Z,4.93
2022-11-01T19:34:05.152Z,5.60
2022-11-01T19:36:44.114Z,5.47
2022-11-01T19:39:24.166Z,5.03
2022-11-01T19:41:56.040Z,4.35
2022-11-01T19:44:27.668Z,8.88
2022-11-01T19:47:02.213Z,4.53
2022-11-01T19:49:32.891Z,5.85
2022-11-01T19:52:24.174Z,5.00
2022-11-01T19:54:57.103Z,3.55
2022-11-01T19:57:33.255Z,6.28
2022-11-01T20:00:19.033Z,5.20
2022-11-01T20:02:49.875Z,3.95
2022-11-01T20:05:28.915Z,4.78
2022-11-01T20:08:17.396Z,4.60
2022-11-01T20:10:46.996Z,4.97
2022-11-01T20:13:16.797Z,5.45
2022-11-01T20:15:47.267Z,3.55
2022-11-01T20:18:16.940Z,6.80
2022-11-01T20:20:46.597Z,6.13
2022-11-01T20:23:27.238Z,4.65
2022-11-01T20:25:57.108Z,5.18
2022-11-01T20:28:26.964Z,3.35
2022-11-01T20:30:56.804Z,5.85
2022-11-01T20:33:26.460Z,3.22
2022-11-01T20:35:56.760Z,6.38
2022-11-01T20:38:28.958Z,5.57
2022-11-01T20:40:59.258Z,6.68
2022-11-01T20:43:28.860Z,8.25
2022-11-01T20:45:58.587Z,3.47
2022-11-01T20:48:28.351Z,6.05
2022-11-01T20:50:59.198Z,6.90
2022-11-01T20:53:31.719Z,5.22
2022-11-01T20:56:01.965Z,4.15
2022-11-01T20:58:31.868Z,2.67
2022-11-01T21:01:02.079Z,5.88
2022-11-01T21:03:31.965Z,4.40
2022-11-01T21:06:01.634Z,3.67
2022-11-01T21:08:34.498Z,7.32
2022-11-01T21:11:06.430Z,3.47
2022-11-01T21:13:39.245Z,5.07
2022-11-01T21:16:19.528Z,4.20
2022-11-01T21:18:49.410Z,6.43
2022-11-01T21:21:42.426Z,6.60
2022-11-01T21:24:35.265Z,6.00
2022-11-01T21:27:25.545Z,3.83
2022-11-01T21:30:02.307Z,7.00
2022-11-01T21:32:35.008Z,2.90
2022-11-01T21:35:26.582Z,4.43
2022-11-01T21:37:58.138Z,4.13
2022-11-01T21:40:32.015Z,3.33
2022-11-01T21:43:22.021Z,6.10
2022-11-01T21:45:51.998Z,2.97
2022-11-01T21:48:31.422Z,4.63
2022-11-01T21:51:01.239Z,4.30
2022-11-01T21:53:30.868Z,5.30
2022-11-01T21:56:03.092Z,5.03
2022-11-01T21:58:32.782Z,4.18
2022-11-01T22:01:02.758Z,4.68
2022-11-01T22:03:32.492Z,4.68
2022-11-01T22:06:02.224Z,6.22
2022-11-01T22:08:31.876Z,8.07
2022-11-01T22:11:04.277Z,6.63
2022-11-01T22:13:33.933Z,5.78
2022-11-01T22:16:03.621Z,4.13
2022-11-01T22:18:33.367Z,5.90
2022-11-01T22:21:03.027Z,7.38
2022-11-01T22:23:32.689Z,6.05
2022-11-01T22:26:05.008Z,6.97
2022-11-01T22:28:35.039Z,7.05
2022-11-01T22:31:04.812Z,6.38
2022-11-01T22:33:35.280Z,12.32
2022-11-01T22:36:05.102Z,6.07
2022-11-01T22:38:38.580Z,8.15
2022-11-01T22:41:17.867Z,5.97
2022-11-01T22:43:50.313Z,7.00
2022-11-01T22:46:26.585Z,7.43
2022-11-01T22:49:04.274Z,5.78
2022-11-01T22:51:40.853Z,9.15
2022-11-01T22:54:27.517Z,6.22
2022-11-01T22:57:04.189Z,8.30
2022-11-01T22:59:36.438Z,8.63
2022-11-01T23:02:25.694Z,6.97
2022-11-01T23:05:02.166Z,4.20
2022-11-01T23:07:36.163Z,9.57
2022-11-01T23:10:10.792Z,4.88
2022-11-01T23:12:55.525Z,7.03
2022-11-01T23:15:31.481Z,7.63
2022-11-01T23:18:05.324Z,8.32
2022-11-01T23:20:34.852Z,7.55
2022-11-01T23:23:04.629Z,8.90
2022-11-01T23:25:34.459Z,8.75
2022-11-01T23:28:07.096Z,7.53
2022-11-01T23:30:36.871Z,7.55
2022-11-01T23:33:08.078Z,14.07
2022-11-01T23:35:37.785Z,12.38
2022-11-01T23:38:17.055Z,7.28
2022-11-01T23:40:47.257Z,9.45
2022-11-01T23:43:25.661Z,8.55
2022-11-01T23:45:55.546Z,10.23
2022-11-01T23:48:26.292Z,11.27
2022-11-01T23:50:56.251Z,6.70
2022-11-01T23:53:34.515Z,10.52
2022-11-01T23:56:07.030Z,7.22
2022-11-01T23:58:41.104Z,7.80
